Insider Buying

 
Symbol Name Keyword
Filings for:
Note: This page automatically refreshes every three minutes.
  Symbol Owner Relationship Date Cost # Shares Value($) Total Shares Filing
Y! GPRE Becker Todd A President and CEO Aug 10, 2020 $14.93 10,000 149,290 539,595 Aug 10, 2020, 05:51 PM
Y! EHTH Morelock Phillip A Chief Digital Officer Aug 07, 2020 $78.29 950 74,376 30,376 Aug 10, 2020, 05:39 PM
Y! RRR FERTITTA LORENZO J Director Aug 07, 2020 $13.73 265,000 3,637,125 47,649,972 Aug 10, 2020, 05:34 PM
Y! RRR FERTITTA LORENZO J Director Aug 06, 2020 $13.26 229,000 3,036,602 47,384,972 Aug 10, 2020, 05:34 PM
Y! RRR FERTITTA FRANK J III Director Aug 07, 2020 $13.73 265,000 3,637,125 47,649,972 Aug 10, 2020, 05:33 PM
Y! RRR FERTITTA FRANK J III Director Aug 06, 2020 $13.26 229,000 3,036,602 47,384,972 Aug 10, 2020, 05:33 PM
Y! CCEL SHEEHY BRIAN L. Director Aug 10, 2020 $9.00 6,455 58,070 496,503 Aug 10, 2020, 05:25 PM
Y! SRE CONESA ANDRES Director Aug 07, 2020 $129.44 2,700 349,488 7,792 Aug 10, 2020, 05:21 PM
Y! CCEL PORTNOY DAVID Chairman, Co-CEO Aug 10, 2020 $9.00 6,000 54,000 437,691 Aug 10, 2020, 05:19 PM
Y! CCEL PORTNOY DAVID Chairman, Co-CEO Aug 07, 2020 $8.88 2,300 20,430 93,329 Aug 10, 2020, 05:19 PM
Y! IMUX Whaley Glenn PFO and PAO Aug 10, 2020 $18.96 1,000 18,960 1,000 Aug 10, 2020, 05:15 PM
Y! CDE MELLOR ROBERT E Chairman (non-executive) Aug 07, 2020 $8.48 1,000 8,475 172,289 Aug 10, 2020, 05:05 PM
Y! FNRN Hayes Barbara A Director Aug 10, 2020 $7.95 1,258 10,001 5,901 Aug 10, 2020, 04:58 PM
Y! ESXB WILLIAMS ROBIN TRAYWICK Director Aug 06, 2020 $5.04 800 4,032 75,345 Aug 10, 2020, 04:52 PM
Y! CHX Alderman Heidi S Director Aug 07, 2020 $10.24 1,000 10,240 1,000 Aug 10, 2020, 04:48 PM
Y! ECL MacLennan David Director Aug 06, 2020 $194.05 400 77,621 8,398 Aug 10, 2020, 04:42 PM
Y! CRUS Lego Catherine P Director Aug 06, 2020 $65.54 3,000 196,606 3,000 Aug 10, 2020, 04:37 PM
Y! AQMS Cotton Stephen Chief Executive Officer Aug 07, 2020 $1.04 721 750 863,071 Aug 10, 2020, 04:36 PM
Y! AQMS Merrill Judd Chief Financial Officer Aug 07, 2020 $1.04 481 500 314,048 Aug 10, 2020, 04:36 PM
Y! EXPE BATTLE A GEORGE Director Aug 07, 2020 $81.38 12,300 1,001,008 58,662 Aug 10, 2020, 04:34 PM
Y! NFE MACK JOHN J Director Aug 06, 2020 $25.13 37,755 948,783 1,178,013 Aug 10, 2020, 04:26 PM
Y! HWC PICKERING CHRISTINE L Director Aug 04, 2020 $18.73 533 9,983 18,804 Aug 10, 2020, 04:24 PM
Y! AXS DAVIS CHARLES A Director Aug 07, 2020 $43.47 350,000 15,214,500 4,115,733 Aug 10, 2020, 04:19 PM
Y! AXS DAVIS CHARLES A Director Aug 06, 2020 $43.15 350,000 15,102,501 3,765,733 Aug 10, 2020, 04:19 PM
Y! CWH LEMONIS MARCUS CHIEF EXECUTIVE OFFICER Aug 10, 2020 $32.56 3,080 100,281 450,503 Aug 10, 2020, 04:15 PM
Y! ICFI VAN HANDEL MICHAEL J Director Aug 07, 2020 $72.47 2,000 144,948 11,131 Aug 10, 2020, 04:14 PM
Y! ICFI VAN HANDEL MICHAEL J Director Aug 10, 2020 $72.50 2,000 145,000 13,131 Aug 10, 2020, 04:14 PM
Y! BPFH LARSON GLORIA C Director Aug 07, 2020 $6.10 5,000 30,476 39,224 Aug 10, 2020, 04:13 PM
Y! UGI Stallings James B JR Director Aug 07, 2020 $33.87 4,400 149,028 4,400 Aug 10, 2020, 04:10 PM
Y! GMRE Busch Jeffrey Chairman, President and CEO Aug 07, 2020 $13.39 10,000 133,900 38,740 Aug 10, 2020, 04:05 PM
Y! NWIN KRUPINSKI KENNETH V Director Aug 10, 2020 $30.75 1,000 30,750 9,955 Aug 10, 2020, 04:05 PM
Y! VAPO Prescott General Partners LLC 10% Owner Aug 06, 2020 $32.92 7,770 255,819 68,341 Aug 10, 2020, 04:05 PM
Y! VAPO Prescott General Partners LLC 10% Owner Aug 06, 2020 $32.92 192,375 6,333,735 1,692,054 Aug 10, 2020, 04:05 PM
Y! VAPO Prescott General Partners LLC 10% Owner Aug 06, 2020 $32.92 9,810 322,983 86,283 Aug 10, 2020, 04:05 PM
Y! VAPO Prescott General Partners LLC 10% Owner Aug 06, 2020 $32.92 90,045 2,964,633 792,000 Aug 10, 2020, 04:05 PM
Y! TT Lee Myles P Director Aug 07, 2020 $116.22 1,000 116,218 7,311 Aug 10, 2020, 04:03 PM
Y! UGI MARRAZZO WILLIAM J Director Aug 07, 2020 $33.83 295 9,981 932 Aug 10, 2020, 04:02 PM
Y! AFG LINDNER S CRAIG Co-CEO & Co-President Aug 06, 2020 $63.20 3,000 189,587 3,000 Aug 10, 2020, 04:02 PM
Y! AFG LINDNER S CRAIG Co-CEO & Co-President Aug 06, 2020 $63.20 3,000 189,587 3,000 Aug 10, 2020, 04:02 PM
Y! AFG LINDNER S CRAIG Co-CEO & Co-President Aug 06, 2020 $63.20 3,000 189,587 1,215,690 Aug 10, 2020, 04:02 PM
Y! AFG LINDNER S CRAIG Co-CEO & Co-President Aug 06, 2020 $63.20 3,000 189,587 1,880,118 Aug 10, 2020, 04:02 PM
Y! PVBC Knapp Laurie H Director May 19, 2020 $9.06 275 2,492 7,349 Aug 10, 2020, 03:56 PM
Y! EDUC Peters Joshua J Director Aug 06, 2020 $14.77 433 6,395 1,616 Aug 10, 2020, 03:47 PM
Y! EDUC Peters Joshua J Director Aug 06, 2020 $14.77 6,172 91,160 23,101 Aug 10, 2020, 03:47 PM
Y! EDUC Peters Joshua J Director Aug 06, 2020 $14.77 5,395 79,684 20,235 Aug 10, 2020, 03:47 PM
Y! BTN Fundamental Global Investors, LLC Director Aug 06, 2020 $1.79 1,300 2,321 165,607 Aug 10, 2020, 03:29 PM
Y! BTN Fundamental Global Investors, LLC Director Aug 06, 2020 $1.79 2,414 4,309 1,994,141 Aug 10, 2020, 03:29 PM
Y! BTN Fundamental Global Investors, LLC Director Aug 07, 2020 $1.82 1,268 2,312 166,875 Aug 10, 2020, 03:29 PM
Y! BTN Fundamental Global Investors, LLC Director Aug 07, 2020 $1.82 2,355 4,293 1,996,496 Aug 10, 2020, 03:29 PM
Y! BKTI Fundamental Global Investors, LLC Director Aug 06, 2020 $3.44 1,919 6,599 1,367,705 Aug 10, 2020, 03:28 PM
Y! BKTI Fundamental Global Investors, LLC Director Aug 07, 2020 $3.39 2,276 7,710 1,369,981 Aug 10, 2020, 03:28 PM
Y! RCG STAHL MURRAY President and CEO Aug 07, 2020 $1.32 300 395 16,284 Aug 10, 2020, 03:20 PM
Y! RCG STAHL MURRAY President and CEO Aug 07, 2020 $1.32 300 395 15,984 Aug 10, 2020, 03:20 PM
Y! RCG STAHL MURRAY President and CEO Aug 07, 2020 $1.32 75 99 15,684 Aug 10, 2020, 03:20 PM
Y! HCAP Jolson Joseph A Chief Executive Officer Aug 07, 2020 $3.95 2,800 11,060 864,273 Aug 10, 2020, 03:15 PM
Y! CRDA CRDB Blanco Joseph O President Aug 06, 2020 $6.90 5,500 37,966 20,500 Aug 10, 2020, 03:01 PM
Y! CRDA CRDB Blanco Joseph O President Aug 07, 2020 $7.19 9,500 68,325 30,000 Aug 10, 2020, 03:01 PM
Y! LARK BALL RICHARD Director Aug 07, 2020 $20.89 451 9,421 140,894 Aug 10, 2020, 03:01 PM
Y! LARK BALL RICHARD Director Aug 06, 2020 $20.99 109 2,288 140,443 Aug 10, 2020, 03:01 PM
Y! ROCK Myers Linda Kristine Director Aug 07, 2020 $63.25 1,575 99,618 1,575 Aug 10, 2020, 02:44 PM
Y! STFC Stachura Paul M Senior Vice President Aug 07, 2020 $17.25 2,000 34,500 33,158 Aug 10, 2020, 02:21 PM
Y! ATAX Rogozinski Kenneth Chief Investment Officer Aug 06, 2020 $4.33 5,308 22,971 13,308 Aug 10, 2020, 02:16 PM
Y! UBCP Glessner Gary W Director Jul 31, 2020 $10.75 950 10,213 55,094 Aug 10, 2020, 02:16 PM
Y! ORI ZUCARO ALDO C Director Aug 06, 2020 $16.20 4,920 79,704 1,315,000 Aug 10, 2020, 01:30 PM
Y! GDYN CARNEY LLOYD Director Aug 10, 2020 $7.25 7,200 52,183 960,297 Aug 10, 2020, 01:18 PM
Y! THR NESSER JOHN T III Director Aug 10, 2020 $14.74 326 4,805 29,500 Aug 10, 2020, 12:44 PM
Y! GDYN Doradla Anil Chief Financial Officer Aug 10, 2020 $7.15 2,500 17,875 202,000 Aug 10, 2020, 12:26 PM
Y! BKSC Walpole Eugene H IV Executive Vice President Aug 07, 2020 $16.35 1,000 16,350 8,011 Aug 10, 2020, 12:12 PM
Y! TPL HORIZON KINETICS ASSET MANAGEMENT LLC 10% Owner Aug 07, 2020 $584.00 8 4,672 276,470 Aug 10, 2020, 12:00 PM
Y! DYFN Angel Oak Financial Strategies Income Term Trust Affiliated Fund Aug 07, 2020 $19.80 2,500 49,499 15,000 Aug 10, 2020, 11:58 AM
Y! SBFG MARTIN WILLIAM G Director Aug 10, 2020 $13.17 500 6,585 8,515 Aug 10, 2020, 11:39 AM
Y! DGICA HESS JACK LEE Director Aug 05, 2020 $14.35 2,000 28,700 48,796 Aug 10, 2020, 11:30 AM
Y! LDL Junker Robert B. President, Lydall TNW May 14, 2020 $9.47 2,300 21,775 25,852 Aug 10, 2020, 11:15 AM
Y! LDL Junker Robert B. President, Lydall TNW Mar 06, 2020 $10.22 5,000 51,076 23,552 Aug 10, 2020, 11:13 AM
Y! LDL Junker Robert B. President, Lydall TNW Mar 04, 2020 $10.75 7,700 82,802 18,552 Aug 10, 2020, 11:10 AM
Y! LDL Junker Robert B. President, Lydall TNW Mar 03, 2020 $10.00 2,306 23,056 10,852 Aug 10, 2020, 11:07 AM
Y! LDL Greenstein Sara A. President and CEO Mar 03, 2020 $9.98 9,340 93,223 116,751 Aug 10, 2020, 10:51 AM
Y! LDL Gonzales Randall B EXEC VP & CFO Mar 03, 2020 $9.98 14,694 146,615 59,955 Aug 10, 2020, 10:46 AM
Y! LDL Gonzales Randall B EXEC VP & CFO Feb 28, 2020 $12.29 2,500 30,721 45,261 Aug 10, 2020, 10:42 AM
Y! LDL Abbruzzi Joseph A. Pres, Thermal Acoustical Solut Mar 19, 2020 $6.79 3,500 23,760 62,480 Aug 10, 2020, 10:38 AM
Y! LDL GILES MARC T Director May 14, 2020 $9.09 5,300 48,167 30,581 Aug 10, 2020, 10:35 AM
Y! LDL Bills David G Director Mar 19, 2020 $6.15 3,000 18,450 14,080 Aug 10, 2020, 10:32 AM
Y! LDL Bills David G Director Mar 13, 2020 $8.40 2,000 16,800 11,080 Aug 10, 2020, 10:30 AM
Y! LDL Bills David G Director Mar 03, 2020 $10.01 1,000 10,005 9,080 Aug 10, 2020, 10:27 AM
Y! LDL Bills David G Director Mar 02, 2020 $10.98 1,000 10,975 8,080 Aug 10, 2020, 10:27 AM
Y! LDL Bills David G Director Feb 28, 2020 $11.96 3,000 35,883 7,080 Aug 10, 2020, 10:27 AM
Y! NP DeSantis Paul F SVP, CFO & Treasurer Aug 07, 2020 $45.17 3,400 153,578 18,342 Aug 10, 2020, 09:31 AM
Y! MGM IAC/InterActiveCorp 10% Owner Aug 07, 2020 $18.89 6,000,000 113,326,698 59,033,902 Aug 10, 2020, 09:27 AM
Y! MGM IAC/InterActiveCorp 10% Owner Aug 06, 2020 $18.37 793,234 14,571,709 53,033,902 Aug 10, 2020, 09:27 AM
Y! MGM IAC/InterActiveCorp 10% Owner Aug 06, 2010 $17.73 2,912,551 51,639,528 52,240,668 Aug 10, 2020, 09:27 AM
Y! CECE DEZWIREK JASON Director Aug 07, 2020 $8.00 11,000 88,027 2,770,546 Aug 10, 2020, 09:08 AM
Y! CECE DEZWIREK JASON Director Aug 06, 2020 $7.66 25,000 191,402 2,759,546 Aug 10, 2020, 09:08 AM
Y! EFSI WILKINS JAMES R JR Director Aug 05, 2020 $25.40 200 5,080 183,079 Aug 10, 2020, 08:56 AM
Y! FMBI SMALL MICHAEL Director Aug 06, 2020 $12.44 2,000 24,880 26,851 Aug 10, 2020, 08:43 AM
Y! MTDR Baty Robert Gaines Director Aug 06, 2020 $9.00 1,120 10,080 53,619 Aug 10, 2020, 08:10 AM
Y! PFE BLAYLOCK RONALD E Director Aug 06, 2020 $38.55 13,000 501,085 13,000 Aug 10, 2020, 08:07 AM
Y! SPOK KELLY VINCENT D President & CEO Aug 05, 2020 $9.96 3,375 33,603 340,502 Aug 10, 2020, 07:31 AM
Y! ADMQ Johnson Marc CEO Aug 07, 2020 $0.08 20,100 1,592 40,470,000 Aug 10, 2020, 06:15 AM
Y! ADMQ Johnson Marc CEO Aug 06, 2020 $0.07 102,265 6,927 40,449,900 Aug 10, 2020, 06:15 AM
Y! BOCH Burks Gary Director Aug 04, 2020 $7.70 660 5,081 9,792 Aug 07, 2020, 09:34 PM
Next : Last
 
Symbol Name Keyword
Filings for:
Note: This page automatically refreshes every three minutes.
Desktop Version
Symbol Owner Relationship Date Value($)
GPRE Becker Todd A President and CEO Aug 10, 2020 149,290
EHTH Morelock Phillip A Chief Digital Officer Aug 07, 2020 74,376
RRR FERTITTA LORENZO J Director Aug 07, 2020 3,637,125
RRR FERTITTA LORENZO J Director Aug 06, 2020 3,036,602
RRR FERTITTA FRANK J III Director Aug 07, 2020 3,637,125
RRR FERTITTA FRANK J III Director Aug 06, 2020 3,036,602
CCEL SHEEHY BRIAN L. Director Aug 10, 2020 58,070
SRE CONESA ANDRES Director Aug 07, 2020 349,488
CCEL PORTNOY DAVID Chairman, Co-CEO Aug 10, 2020 54,000
CCEL PORTNOY DAVID Chairman, Co-CEO Aug 07, 2020 20,430
IMUX Whaley Glenn PFO and PAO Aug 10, 2020 18,960
CDE MELLOR ROBERT E Chairman (non-executive) Aug 07, 2020 8,475
FNRN Hayes Barbara A Director Aug 10, 2020 10,001
ESXB WILLIAMS ROBIN TRAYWICK Director Aug 06, 2020 4,032
CHX Alderman Heidi S Director Aug 07, 2020 10,240
ECL MacLennan David Director Aug 06, 2020 77,621
CRUS Lego Catherine P Director Aug 06, 2020 196,606
AQMS Cotton Stephen Chief Executive Officer Aug 07, 2020 750
AQMS Merrill Judd Chief Financial Officer Aug 07, 2020 500
EXPE BATTLE A GEORGE Director Aug 07, 2020 1,001,008
NFE MACK JOHN J Director Aug 06, 2020 948,783
HWC PICKERING CHRISTINE L Director Aug 04, 2020 9,983
AXS DAVIS CHARLES A Director Aug 07, 2020 15,214,500
AXS DAVIS CHARLES A Director Aug 06, 2020 15,102,501
CWH LEMONIS MARCUS CHIEF EXECUTIVE OFFICER Aug 10, 2020 100,281
ICFI VAN HANDEL MICHAEL J Director Aug 07, 2020 144,948
ICFI VAN HANDEL MICHAEL J Director Aug 10, 2020 145,000
BPFH LARSON GLORIA C Director Aug 07, 2020 30,476
UGI Stallings James B JR Director Aug 07, 2020 149,028
GMRE Busch Jeffrey Chairman, President and CEO Aug 07, 2020 133,900
NWIN KRUPINSKI KENNETH V Director Aug 10, 2020 30,750
VAPO Prescott General Partners LLC 10% Owner Aug 06, 2020 255,819
VAPO Prescott General Partners LLC 10% Owner Aug 06, 2020 6,333,735
VAPO Prescott General Partners LLC 10% Owner Aug 06, 2020 322,983
VAPO Prescott General Partners LLC 10% Owner Aug 06, 2020 2,964,633
TT Lee Myles P Director Aug 07, 2020 116,218
UGI MARRAZZO WILLIAM J Director Aug 07, 2020 9,981
AFG LINDNER S CRAIG Co-CEO & Co-President Aug 06, 2020 189,587
AFG LINDNER S CRAIG Co-CEO & Co-President Aug 06, 2020 189,587
AFG LINDNER S CRAIG Co-CEO & Co-President Aug 06, 2020 189,587
AFG LINDNER S CRAIG Co-CEO & Co-President Aug 06, 2020 189,587
PVBC Knapp Laurie H Director May 19, 2020 2,492
EDUC Peters Joshua J Director Aug 06, 2020 6,395
EDUC Peters Joshua J Director Aug 06, 2020 91,160
EDUC Peters Joshua J Director Aug 06, 2020 79,684
BTN Fundamental Global Investors, LLC Director Aug 06, 2020 2,321
BTN Fundamental Global Investors, LLC Director Aug 06, 2020 4,309
BTN Fundamental Global Investors, LLC Director Aug 07, 2020 2,312
BTN Fundamental Global Investors, LLC Director Aug 07, 2020 4,293
BKTI Fundamental Global Investors, LLC Director Aug 06, 2020 6,599
BKTI Fundamental Global Investors, LLC Director Aug 07, 2020 7,710
RCG STAHL MURRAY President and CEO Aug 07, 2020 395
RCG STAHL MURRAY President and CEO Aug 07, 2020 395
RCG STAHL MURRAY President and CEO Aug 07, 2020 99
HCAP Jolson Joseph A Chief Executive Officer Aug 07, 2020 11,060
CRDA CRDB Blanco Joseph O President Aug 06, 2020 37,966
CRDA CRDB Blanco Joseph O President Aug 07, 2020 68,325
LARK BALL RICHARD Director Aug 07, 2020 9,421
LARK BALL RICHARD Director Aug 06, 2020 2,288
ROCK Myers Linda Kristine Director Aug 07, 2020 99,618
STFC Stachura Paul M Senior Vice President Aug 07, 2020 34,500
ATAX Rogozinski Kenneth Chief Investment Officer Aug 06, 2020 22,971
UBCP Glessner Gary W Director Jul 31, 2020 10,213
ORI ZUCARO ALDO C Director Aug 06, 2020 79,704
GDYN CARNEY LLOYD Director Aug 10, 2020 52,183
THR NESSER JOHN T III Director Aug 10, 2020 4,805
GDYN Doradla Anil Chief Financial Officer Aug 10, 2020 17,875
BKSC Walpole Eugene H IV Executive Vice President Aug 07, 2020 16,350
TPL HORIZON KINETICS ASSET MANAGEMENT LLC 10% Owner Aug 07, 2020 4,672
DYFN Angel Oak Financial Strategies Income Term Trust Affiliated Fund Aug 07, 2020 49,499
SBFG MARTIN WILLIAM G Director Aug 10, 2020 6,585
DGICA HESS JACK LEE Director Aug 05, 2020 28,700
LDL Junker Robert B. President, Lydall TNW May 14, 2020 21,775
LDL Junker Robert B. President, Lydall TNW Mar 06, 2020 51,076
LDL Junker Robert B. President, Lydall TNW Mar 04, 2020 82,802
LDL Junker Robert B. President, Lydall TNW Mar 03, 2020 23,056
LDL Greenstein Sara A. President and CEO Mar 03, 2020 93,223
LDL Gonzales Randall B EXEC VP & CFO Mar 03, 2020 146,615
LDL Gonzales Randall B EXEC VP & CFO Feb 28, 2020 30,721
LDL Abbruzzi Joseph A. Pres, Thermal Acoustical Solut Mar 19, 2020 23,760
LDL GILES MARC T Director May 14, 2020 48,167
LDL Bills David G Director Mar 19, 2020 18,450
LDL Bills David G Director Mar 13, 2020 16,800
LDL Bills David G Director Mar 03, 2020 10,005
LDL Bills David G Director Mar 02, 2020 10,975
LDL Bills David G Director Feb 28, 2020 35,883
NP DeSantis Paul F SVP, CFO & Treasurer Aug 07, 2020 153,578
MGM IAC/InterActiveCorp 10% Owner Aug 07, 2020 113,326,698
MGM IAC/InterActiveCorp 10% Owner Aug 06, 2020 14,571,709
MGM IAC/InterActiveCorp 10% Owner Aug 06, 2010 51,639,528
CECE DEZWIREK JASON Director Aug 07, 2020 88,027
CECE DEZWIREK JASON Director Aug 06, 2020 191,402
EFSI WILKINS JAMES R JR Director Aug 05, 2020 5,080
FMBI SMALL MICHAEL Director Aug 06, 2020 24,880
MTDR Baty Robert Gaines Director Aug 06, 2020 10,080
PFE BLAYLOCK RONALD E Director Aug 06, 2020 501,085
SPOK KELLY VINCENT D President & CEO Aug 05, 2020 33,603
ADMQ Johnson Marc CEO Aug 07, 2020 1,592
ADMQ Johnson Marc CEO Aug 06, 2020 6,927
BOCH Burks Gary Director Aug 04, 2020 5,081
Next : Last